Meteo Giornale » Osservazioni meteo Svizzera » Buochs

ore: 23:20 - Osservazioni Meteo Buochs
Lat. 46° 58' N Lon. 8° 23' E Alt. 450 metri s.l.m.

molto_nuvoloso Europe/Zurich

18 °C

Molto Nuvoloso

Temp. 24 Ore

10 °C

22 °C

Sud/Sud-Ovest

11.1 Km/h

Dew point 15 °C

Umidità 82 %

Visibilità  10 Km

Il sole sorge alle ore 07:16

Il sole tramonta alle ore 19:20

Data e Ora Cielo e Fenomeni T °C DP °C Um. % Pres. hPa Vis. km Vento km/h
Oggi h: 23:20 molto_nuvoloso Molto Nuvoloso 18 15 82 1020 10 S/SO 11.1
Oggi h: 22:50 molto_nuvoloso Molto Nuvoloso 18 15 82 1020 10 N 3.7
Oggi h: 22:20 molto_nuvoloso Molto Nuvoloso 18 15 82 1020 10 N 5.5
Oggi h: 21:50 coperto_pioggia Pioggia Debole 18 15 82 1019 10 N 5.5
Oggi h: 21:20 molto_nuvoloso Molto Nuvoloso 19 15 77 1019 10 S 7.4
Oggi h: 20:50 molto_nuvoloso Molto Nuvoloso 20 15 72 1019 10 S 7.4
Oggi h: 20:20 molto_nuvoloso Molto Nuvoloso 19 15 77 1018 10 N 3.7
Oggi h: 19:50 molto_nuvoloso Molto Nuvoloso 19 15 77 1017 10 NE 7.4
Oggi h: 19:20 molto_nuvoloso Molto Nuvoloso 19 16 82 1018 10 N 5.5
Oggi h: 18:50 coperto_pioggia Pioggia Debole 19 16 82 1018 10 O 9.3
Oggi h: 17:50 coperto Coperto 20 13 64 1017 10 N 1.8
Oggi h: 17:20 molto_nuvoloso Molto Nuvoloso 21 15 68 1017 10 N 3.7
Oggi h: 16:50 molto_nuvoloso Molto Nuvoloso 22 14 60 1017 10 N 3.7
Oggi h: 16:20 sereno Sereno 22 12 53 1017 10 E 7.4
Oggi h: 15:50 poco_nuvoloso Poco Nuvoloso 21 13 60 1017 10 E/NE 9.3
Oggi h: 15:20 sereno Sereno 22 14 60 1017 10 E 7.4
Oggi h: 14:50 sereno Sereno 21 13 60 1017 10 NE 7.4
Oggi h: 14:20 sereno Sereno 21 13 60 1018 10 N 3.7
Oggi h: 13:50 sereno Sereno 21 13 60 1018 10 N 3.7
Oggi h: 13:20 sereno Sereno 20 12 59 1019 10 N 3.7
Oggi h: 12:50 sereno Sereno 19 12 63 1019 10 E 7.4
Oggi h: 12:20 sereno Sereno 18 13 72 1019 10 E/NE 7.4
Oggi h: 11:50 sereno Sereno 19 12 63 1019 10 N 5.5
Oggi h: 11:20 sereno Sereno 19 12 63 1019 10 N 3.7
Oggi h: 10:50 sereno Sereno 18 13 72 1019 10 N 1.8
Oggi h: 10:20 sereno Sereno 17 12 72 1019 10 N 5.5
Oggi h: 09:50 sereno Sereno 16 12 77 1019 10 N 1.8
Oggi h: 09:20 sereno Sereno 14 11 82 1019 10 N 1.8
Oggi h: 08:50 sereno Sereno 13 11 87 1020 10 N 1.8
Oggi h: 08:20 sereno Sereno 12 10 87 1020 10 N 5.5
Oggi h: 07:50 sereno Sereno 11 10 93 1019 10 N 3.7
Oggi h: 07:20 sereno Sereno 10 9 93 1019 10 SO 9.3
Oggi h: 06:50 sereno Sereno 12 9 81 1019 10 N 5.5
Oggi h: 05:50 sereno Sereno 11 10 93 1019 10 N 5.5
Oggi h: 05:20 sereno Sereno 11 10 93 1019 10 O/SO 9.3
Oggi h: 04:50 sereno Sereno 12 10 87 1019 10 N 5.5
Oggi h: 04:20 sereno Sereno 12 11 93 1019 10 O/NO 9.3
Oggi h: 03:50 sereno Sereno 12 11 93 1019 10 O/SO 9.3
Oggi h: 03:20 sereno Sereno 12 10 87 1019 10 O/SO 7.4
Oggi h: 01:50 sereno Sereno 14 11 82 1020 10 O 9.3
Oggi h: 01:20 sereno Sereno 14 11 82 1020 10 O/SO 7.4
Oggi h: 00:50 sereno Sereno 13 12 93 1020 10 SO 7.4
Oggi h: 00:20 sereno Sereno 14 12 87 1019 10 N 5.5
Ieri h: 23:50 sereno Sereno 15 12 82 1020 10 N 5.5